Time;durP1;ratioP1;P1;durP2;ratioP2;P2;SDS_P1;SDS_P2;PMS_P1;PMS_P2;Temp;Humidity;BMP_temperature;BMP_pressure;BME280_temperature;BME280_humidity;BME280_pressure;Samples;Min_cycle;Max_cycle;Signal;HPM_P1;HPM_P2
2022/01/13 00:01:14;;;;;;;30.00;12.10;;;;;;;;;;6264522;28;20136;-82
2022/01/13 00:04:18;;;;;;;29.77;12.23;;;;;;;;;;6231916;28;20040;-82
2022/01/13 00:07:20;;;;;;;32.15;12.63;;;;;;;;;;6249715;28;20054;-81
2022/01/13 00:10:22;;;;;;;30.17;12.48;;;;;;;;;;6267774;28;20096;-83
2022/01/13 00:13:30;;;;;;;32.92;13.65;;;;;;;;;;6252419;28;20061;-83
2022/01/13 00:26:15;;;;;;;35.65;13.65;;;;;;;;;;6251499;28;20037;-84
2022/01/13 00:29:21;;;;;;;33.67;12.30;;;;;;;;;;6267449;28;20040;-82
2022/01/13 00:32:26;;;;;;;34.40;12.40;;;;;;;;;;6266726;28;20099;-84
2022/01/13 00:35:28;;;;;;;34.10;13.02;;;;;;;;;;6265933;28;20051;-82
2022/01/13 00:38:31;;;;;;;34.75;13.25;;;;;;;;;;6247391;28;20052;-82
2022/01/13 00:41:32;;;;;;;34.20;12.55;;;;;;;;;;6248674;28;20049;-83
2022/01/13 00:44:37;;;;;;;38.65;13.80;;;;;;;;;;6243332;28;20048;-82
2022/01/13 00:47:40;;;;;;;36.85;13.65;;;;;;;;;;6266375;28;20544;-82
2022/01/13 00:50:41;;;;;;;42.03;13.43;;;;;;;;;;6263298;28;20061;-85
2022/01/13 00:53:43;;;;;;;34.88;13.20;;;;;;;;;;6268833;28;20413;-84
2022/01/13 00:56:45;;;;;;;40.63;13.45;;;;;;;;;;6252129;28;20049;-82
2022/01/13 00:59:46;;;;;;;34.42;13.82;;;;;;;;;;6267159;28;20045;-83
2022/01/13 01:02:48;;;;;;;35.00;12.90;;;;;;;;;;6252795;28;20056;-80
2022/01/13 01:05:50;;;;;;;34.88;13.80;;;;;;;;;;6265623;28;20142;-84
2022/01/13 01:08:52;;;;;;;36.72;14.50;;;;;;;;;;6230516;28;20034;-87
2022/01/13 01:11:55;;;;;;;36.75;14.20;;;;;;;;;;6250733;28;20066;-82
2022/01/13 01:14:58;;;;;;;38.83;14.55;;;;;;;;;;6250854;28;20470;-83
2022/01/13 01:18:06;;;;;;;33.78;12.90;;;;;;;;;;6268101;28;20516;-83
2022/01/13 01:27:25;;;;;;;36.45;13.18;;;;;;;;;;6268428;28;20512;-82
2022/01/13 01:30:37;;;;;;;36.45;13.93;;;;;;;;;;6267201;28;20049;-82
2022/01/13 01:33:44;;;;;;;35.40;13.30;;;;;;;;;;6240945;28;20053;-82
2022/01/13 01:36:46;;;;;;;34.78;12.98;;;;;;;;;;6243305;28;20456;-82
2022/01/13 01:39:49;;;;;;;38.88;14.82;;;;;;;;;;6243067;28;20060;-86
2022/01/13 01:42:51;;;;;;;31.67;12.63;;;;;;;;;;6284733;28;20493;-83
2022/01/13 01:45:54;;;;;;;40.22;13.52;;;;;;;;;;6262395;28;20041;-83
2022/01/13 01:48:58;;;;;;;33.42;12.48;;;;;;;;;;6269609;28;20041;-82
2022/01/13 01:52:01;;;;;;;40.00;13.63;;;;;;;;;;6266735;28;20041;-83
2022/01/13 01:55:04;;;;;;;39.95;14.35;;;;;;;;;;6267743;28;20049;-83
2022/01/13 01:58:05;;;;;;;37.15;12.57;;;;;;;;;;6283492;28;20040;-83
2022/01/13 02:01:07;;;;;;;29.70;11.48;;;;;;;;;;6283379;28;20039;-82
2022/01/13 02:04:09;;;;;;;39.20;13.20;;;;;;;;;;6266904;28;20045;-82
2022/01/13 02:07:12;;;;;;;40.47;12.93;;;;;;;;;;6279137;28;20037;-83
2022/01/13 02:10:16;;;;;;;37.95;14.60;;;;;;;;;;6271349;28;20075;-81
2022/01/13 02:13:22;;;;;;;43.85;14.48;;;;;;;;;;6269409;28;20508;-85
2022/01/13 02:19:34;;;;;;;33.72;13.43;;;;;;;;;;6263893;28;20045;-81
2022/01/13 02:22:36;;;;;;;31.20;12.07;;;;;;;;;;6264635;28;20052;-82
2022/01/13 02:25:38;;;;;;;34.70;12.63;;;;;;;;;;6264693;28;20059;-83
2022/01/13 02:28:40;;;;;;;34.80;12.95;;;;;;;;;;6261794;28;20045;-82
2022/01/13 02:31:42;;;;;;;31.48;12.45;;;;;;;;;;6263226;28;20103;-83
2022/01/13 02:34:44;;;;;;;39.78;12.65;;;;;;;;;;6280900;28;20122;-81
2022/01/13 02:37:46;;;;;;;36.70;12.85;;;;;;;;;;6264519;28;20051;-81
2022/01/13 02:40:55;;;;;;;35.08;12.90;;;;;;;;;;6271085;28;20067;-81
2022/01/13 02:44:02;;;;;;;37.83;12.23;;;;;;;;;;6262588;28;20107;-83
2022/01/13 02:47:10;;;;;;;33.63;12.15;;;;;;;;;;6279413;28;20433;-81
2022/01/13 02:50:31;;;;;;;34.67;12.35;;;;;;;;;;6278362;28;20124;-82
2022/01/13 02:53:33;;;;;;;34.33;11.88;;;;;;;;;;6267498;28;20051;-80
2022/01/13 02:56:36;;;;;;;36.45;12.13;;;;;;;;;;6259442;28;20044;-81
2022/01/13 02:59:37;;;;;;;35.35;12.55;;;;;;;;;;6266295;28;20124;-82
2022/01/13 03:02:39;;;;;;;31.10;11.80;;;;;;;;;;6263388;28;20045;-82
2022/01/13 03:05:41;;;;;;;36.55;12.73;;;;;;;;;;6266373;28;20541;-82
2022/01/13 03:08:45;;;;;;;34.05;11.63;;;;;;;;;;6259457;28;20056;-82
2022/01/13 03:11:47;;;;;;;30.77;11.55;;;;;;;;;;6267545;28;20536;-81
2022/01/13 03:14:49;;;;;;;32.78;10.82;;;;;;;;;;6267493;28;20064;-81
2022/01/13 03:17:50;;;;;;;38.28;12.73;;;;;;;;;;6260850;28;20116;-80
2022/01/13 03:20:52;;;;;;;33.95;12.18;;;;;;;;;;6267114;28;20041;-81
2022/01/13 03:23:54;;;;;;;31.48;11.43;;;;;;;;;;6266533;28;20127;-82
2022/01/13 03:26:56;;;;;;;34.03;12.75;;;;;;;;;;6264080;28;20045;-83
2022/01/13 03:29:57;;;;;;;33.80;11.60;;;;;;;;;;6264266;28;20061;-81
2022/01/13 03:33:00;;;;;;;35.67;12.10;;;;;;;;;;6265922;28;20111;-83
2022/01/13 03:36:02;;;;;;;;;;;;;;;;;;6266187;28;20048;-82
2022/01/13 03:39:06;;;;;;;28.15;10.85;;;;;;;;;;6265129;28;20011;-83
2022/01/13 03:42:08;;;;;;;36.63;12.20;;;;;;;;;;6268219;28;20052;-84
2022/01/13 03:45:10;;;;;;;40.22;13.32;;;;;;;;;;6272042;28;20055;-83
2022/01/13 03:48:13;;;;;;;39.97;12.43;;;;;;;;;;6268255;28;20132;-82
2022/01/13 03:51:14;;;;;;;;;;;;;;;;;;6271340;28;20383;-83
2022/01/13 03:54:31;;;;;;;32.03;11.32;;;;;;;;;;6263800;28;19920;-84
2022/01/13 03:58:05;;;;;;;33.70;10.98;;;;;;;;;;6271641;28;20104;-82
2022/01/13 04:01:15;;;;;;;26.27;10.52;;;;;;;;;;6266962;28;20124;-83
2022/01/13 04:04:18;;;;;;;25.08;9.63;;;;;;;;;;6272620;28;20069;-81
2022/01/13 04:07:23;;;;;;;30.08;9.98;;;;;;;;;;6269977;28;20159;-84
2022/01/13 04:10:46;;;;;;;34.25;12.57;;;;;;;;;;6279802;28;20104;-85
2022/01/13 04:16:49;;;;;;;29.58;10.88;;;;;;;;;;6285509;28;20128;-84
2022/01/13 04:19:52;;;;;;;31.15;11.45;;;;;;;;;;6270695;28;20175;-84
2022/01/13 04:22:53;;;;;;;29.25;10.60;;;;;;;;;;6262441;28;20061;-82
2022/01/13 04:25:55;;;;;;;39.72;12.95;;;;;;;;;;6263664;28;20040;-83
2022/01/13 04:32:12;;;;;;;29.70;10.00;;;;;;;;;;6260230;28;20045;-83
2022/01/13 04:35:14;;;;;;;38.58;12.48;;;;;;;;;;6268952;28;20102;-83
2022/01/13 04:38:15;;;;;;;27.40;10.20;;;;;;;;;;6274906;28;20505;-82
2022/01/13 04:41:28;;;;;;;36.70;11.93;;;;;;;;;;6276599;28;20064;-83
2022/01/13 04:44:30;;;;;;;40.70;12.73;;;;;;;;;;6271669;28;20599;-83
2022/01/13 04:47:32;;;;;;;32.88;11.98;;;;;;;;;;6269969;28;20505;-83
2022/01/13 04:50:33;;;;;;;40.45;12.18;;;;;;;;;;6251823;28;20151;-84
2022/01/13 04:53:35;;;;;;;40.38;13.23;;;;;;;;;;6270221;28;20041;-82
2022/01/13 04:56:43;;;;;;;30.90;11.27;;;;;;;;;;6285167;28;20124;-82
2022/01/13 04:59:45;;;;;;;29.92;10.27;;;;;;;;;;6271539;28;20055;-82
2022/01/13 05:02:48;;;;;;;32.38;11.57;;;;;;;;;;6270881;28;20048;-84
2022/01/13 05:05:50;;;;;;;37.23;12.67;;;;;;;;;;6271865;28;20612;-85
2022/01/13 05:08:52;;;;;;;44.17;13.00;;;;;;;;;;6270601;28;20207;-83
2022/01/13 05:11:53;;;;;;;39.33;12.13;;;;;;;;;;6270888;28;20465;-82
2022/01/13 05:15:01;;;;;;;39.90;13.80;;;;;;;;;;6270798;28;20486;-82
2022/01/13 05:24:24;;;;;;;40.58;12.65;;;;;;;;;;6262028;28;20100;-82
2022/01/13 05:27:27;;;;;;;38.30;12.87;;;;;;;;;;6270994;28;20045;-81
2022/01/13 05:30:28;;;;;;;40.67;12.55;;;;;;;;;;6269561;28;20243;-82
2022/01/13 05:33:30;;;;;;;41.00;13.20;;;;;;;;;;6269258;28;20516;-85
2022/01/13 05:36:31;;;;;;;31.95;10.65;;;;;;;;;;6270184;28;20043;-82
2022/01/13 05:39:33;;;;;;;36.35;12.05;;;;;;;;;;6270818;28;20131;-85
2022/01/13 05:42:35;;;;;;;36.30;12.25;;;;;;;;;;6267254;28;20128;-83
2022/01/13 05:45:38;;;;;;;36.40;12.05;;;;;;;;;;6285378;28;20053;-83
2022/01/13 05:48:39;;;;;;;43.75;12.10;;;;;;;;;;6270159;28;20049;-83
2022/01/13 05:51:41;;;;;;;38.53;13.00;;;;;;;;;;6269680;28;20098;-84
2022/01/13 05:54:43;;;;;;;40.17;12.27;;;;;;;;;;6269818;28;20136;-82
2022/01/13 05:57:44;;;;;;;36.95;11.30;;;;;;;;;;6271086;28;20111;-83
2022/01/13 06:00:46;;;;;;;32.58;10.98;;;;;;;;;;6272262;28;20175;-83
2022/01/13 06:03:48;;;;;;;31.30;10.55;;;;;;;;;;6271565;28;20080;-83
2022/01/13 06:06:49;;;;;;;34.22;11.57;;;;;;;;;;6271516;28;20109;-82
2022/01/13 06:09:51;;;;;;;37.92;11.65;;;;;;;;;;6284362;28;20045;-83
2022/01/13 06:12:53;;;;;;;38.00;10.18;;;;;;;;;;6287106;28;20179;-84
2022/01/13 06:15:54;;;;;;;38.95;11.30;;;;;;;;;;6270183;28;20132;-82
2022/01/13 06:18:56;;;;;;;39.15;11.60;;;;;;;;;;6269884;28;20045;-81
2022/01/13 06:21:58;;;;;;;34.15;10.98;;;;;;;;;;6285411;28;20064;-82
2022/01/13 06:25:01;;;;;;;37.13;10.82;;;;;;;;;;6270456;28;20072;-81
2022/01/13 06:28:04;;;;;;;44.80;12.45;;;;;;;;;;6285901;28;20120;-81
2022/01/13 06:31:14;;;;;;;35.08;11.07;;;;;;;;;;6268393;28;20033;-82
2022/01/13 06:34:16;;;;;;;40.00;11.32;;;;;;;;;;6270733;28;20087;-82
2022/01/13 06:37:19;;;;;;;44.35;11.75;;;;;;;;;;6270951;28;20049;-83
2022/01/13 06:40:20;;;;;;;42.40;11.35;;;;;;;;;;6283600;28;20506;-83
2022/01/13 06:43:22;;;;;;;39.00;12.35;;;;;;;;;;6260853;28;20164;-82
2022/01/13 06:46:24;;;;;;;33.88;11.43;;;;;;;;;;6261146;28;20137;-82
2022/01/13 06:49:26;;;;;;;42.78;12.05;;;;;;;;;;6269212;28;20056;-83
2022/01/13 06:52:27;;;;;;;38.95;10.95;;;;;;;;;;6267891;28;20091;-82
2022/01/13 06:55:29;;;;;;;35.30;9.30;;;;;;;;;;6267664;28;20047;-83
2022/01/13 06:58:31;;;;;;;35.53;10.73;;;;;;;;;;6269161;28;20091;-82
2022/01/13 07:01:32;;;;;;;40.15;11.32;;;;;;;;;;6268809;28;20065;-82
2022/01/13 07:04:34;;;;;;;38.47;10.93;;;;;;;;;;6268752;28;20045;-82
2022/01/13 07:07:40;;;;;;;36.80;10.43;;;;;;;;;;6253066;28;20040;-84
2022/01/13 07:10:42;;;;;;;36.10;8.60;;;;;;;;;;6269079;28;20095;-82
2022/01/13 07:13:43;;;;;;;39.80;11.57;;;;;;;;;;6269426;28;20379;-83
2022/01/13 07:16:47;;;;;;;38.15;11.90;;;;;;;;;;6268066;28;20078;-83
2022/01/13 07:19:51;;;;;;;36.78;11.65;;;;;;;;;;6225710;28;20399;-82
2022/01/13 07:22:53;;;;;;;27.25;8.95;;;;;;;;;;6223857;28;20045;-82
2022/01/13 07:25:54;;;;;;;30.92;9.85;;;;;;;;;;6239736;28;20114;-79
2022/01/13 07:28:56;;;;;;;33.35;11.10;;;;;;;;;;6265544;28;20120;-82
2022/01/13 07:31:59;;;;;;;28.88;9.32;;;;;;;;;;6262968;28;20041;-83
2022/01/13 07:35:01;;;;;;;34.88;10.02;;;;;;;;;;6282511;28;20040;-81
2022/01/13 07:38:02;;;;;;;35.70;10.13;;;;;;;;;;6264948;28;20409;-83
2022/01/13 07:41:04;;;;;;;29.15;9.38;;;;;;;;;;6267441;28;20121;-81
2022/01/13 07:44:06;;;;;;;55.17;14.70;;;;;;;;;;6250012;28;20036;-82
2022/01/13 07:47:08;;;;;;;40.65;11.35;;;;;;;;;;6264359;28;20091;-82
2022/01/13 07:50:12;;;;;;;28.45;8.82;;;;;;;;;;6264546;28;20041;-81
2022/01/13 07:53:14;;;;;;;28.15;9.43;;;;;;;;;;6265803;28;20041;-83
2022/01/13 07:56:16;;;;;;;29.07;9.53;;;;;;;;;;6265195;28;20405;-83
2022/01/13 07:59:17;;;;;;;28.27;9.68;;;;;;;;;;6265696;28;20041;-81
2022/01/13 08:02:19;;;;;;;31.30;9.65;;;;;;;;;;6265563;28;20124;-82
2022/01/13 08:05:21;;;;;;;25.17;8.38;;;;;;;;;;6266810;28;20045;-80
2022/01/13 08:08:23;;;;;;;27.95;9.40;;;;;;;;;;6258539;28;20051;-81
2022/01/13 08:11:24;;;;;;;29.98;9.15;;;;;;;;;;6265060;28;20056;-81
2022/01/13 08:14:26;;;;;;;24.60;8.10;;;;;;;;;;6265612;28;20566;-80
2022/01/13 08:20:48;;;;;;;32.03;10.15;;;;;;;;;;6268361;28;20049;-81
2022/01/13 08:23:50;;;;;;;30.63;9.13;;;;;;;;;;6268608;28;20083;-82
2022/01/13 08:26:52;;;;;;;37.05;9.65;;;;;;;;;;6269040;28;20083;-83
2022/01/13 08:29:53;;;;;;;29.23;8.30;;;;;;;;;;6274854;28;20575;-82
2022/01/13 08:32:55;;;;;;;37.60;9.80;;;;;;;;;;6272689;28;20037;-83
2022/01/13 08:35:57;;;;;;;34.10;9.50;;;;;;;;;;6275344;28;20123;-82
2022/01/13 08:38:59;;;;;;;35.40;10.05;;;;;;;;;;6272755;28;20045;-81
2022/01/13 08:42:00;;;;;;;35.65;11.00;;;;;;;;;;6273030;28;20064;-81
2022/01/13 08:45:05;;;;;;;46.08;11.68;;;;;;;;;;6256542;28;20148;-81
2022/01/13 08:48:07;;;;;;;36.30;9.48;;;;;;;;;;6271476;28;20113;-81
2022/01/13 08:51:09;;;;;;;40.13;12.45;;;;;;;;;;6274656;28;20730;-82
2022/01/13 08:54:11;;;;;;;41.88;11.68;;;;;;;;;;6274235;28;20450;-80
2022/01/13 08:57:14;;;;;;;41.33;11.05;;;;;;;;;;6271915;28;20064;-84
2022/01/13 09:00:15;;;;;;;43.97;12.98;;;;;;;;;;6270995;28;20160;-84
2022/01/13 09:03:17;;;;;;;39.22;11.07;;;;;;;;;;6266622;28;20103;-83
2022/01/13 09:06:19;;;;;;;35.78;11.35;;;;;;;;;;6267136;28;20436;-81
2022/01/13 09:09:20;;;;;;;43.92;14.85;;;;;;;;;;6264835;28;20148;-80
2022/01/13 09:12:22;;;;;;;49.17;15.05;;;;;;;;;;6265420;28;20124;-84
2022/01/13 09:15:39;;;;;;;42.67;12.43;;;;;;;;;;6266186;28;20045;-84
2022/01/13 09:21:58;;;;;;;32.60;11.82;;;;;;;;;;6266040;28;20068;-80
2022/01/13 09:24:59;;;;;;;38.22;12.68;;;;;;;;;;6269079;28;20090;-82
2022/01/13 09:28:06;;;;;;;35.88;12.18;;;;;;;;;;6251559;28;20055;-82
2022/01/13 09:31:08;;;;;;;36.67;12.20;;;;;;;;;;6268460;28;20067;-83
2022/01/13 09:34:10;;;;;;;38.83;12.88;;;;;;;;;;6269416;28;20075;-81
2022/01/13 09:37:12;;;;;;;48.70;13.43;;;;;;;;;;6269606;28;20132;-82
2022/01/13 09:40:15;;;;;;;41.15;12.73;;;;;;;;;;6266819;28;20120;-83
2022/01/13 09:43:18;;;;;;;40.88;12.60;;;;;;;;;;6273271;28;20115;-82
2022/01/13 09:46:19;;;;;;;38.90;11.98;;;;;;;;;;6265693;28;20514;-81
2022/01/13 09:49:21;;;;;;;41.30;11.98;;;;;;;;;;6268841;28;20122;-82
2022/01/13 09:52:23;;;;;;;36.22;11.52;;;;;;;;;;6271819;28;20040;-81
2022/01/13 09:55:24;;;;;;;41.92;12.07;;;;;;;;;;6254361;28;20104;-82
2022/01/13 09:58:26;;;;;;;35.78;11.90;;;;;;;;;;6270376;28;20120;-82
2022/01/13 10:01:28;;;;;;;53.17;17.30;;;;;;;;;;6260596;28;20151;-82
2022/01/13 10:04:50;;;;;;;37.03;11.55;;;;;;;;;;6270492;28;20076;-82
2022/01/13 10:07:52;;;;;;;48.65;14.15;;;;;;;;;;6286085;28;20051;-81
2022/01/13 10:10:56;;;;;;;41.25;13.43;;;;;;;;;;6269503;28;20037;-82
2022/01/13 10:17:27;;;;;;;44.33;13.98;;;;;;;;;;6270937;28;20123;-83
2022/01/13 10:20:29;;;;;;;29.88;10.70;;;;;;;;;;6269520;28;20407;-83
2022/01/13 10:23:31;;;;;;;122.57;44.80;;;;;;;;;;6270549;28;20136;-82
2022/01/13 10:26:34;;;;;;;67.57;27.60;;;;;;;;;;6262571;28;20044;-82
2022/01/13 10:29:41;;;;;;;36.97;13.40;;;;;;;;;;6267658;28;20482;-82
2022/01/13 10:32:45;;;;;;;33.38;12.60;;;;;;;;;;6255172;28;20178;-81
2022/01/13 10:35:48;;;;;;;33.53;11.43;;;;;;;;;;6263509;28;20472;-82
2022/01/13 10:38:56;;;;;;;33.92;11.30;;;;;;;;;;6275713;28;20187;-81
2022/01/13 10:42:20;;;;;;;28.83;10.75;;;;;;;;;;6264492;28;20041;-81
2022/01/13 10:45:26;;;;;;;31.10;11.02;;;;;;;;;;6264499;28;20095;-81
2022/01/13 10:48:32;;;;;;;36.97;11.52;;;;;;;;;;6266657;28;20051;-82
2022/01/13 10:51:34;;;;;;;33.60;11.25;;;;;;;;;;6276807;28;20627;-80
2022/01/13 10:54:35;;;;;;;30.50;10.85;;;;;;;;;;6266525;28;20490;-81
2022/01/13 10:57:41;;;;;;;29.65;10.35;;;;;;;;;;6268060;28;20243;-80
2022/01/13 11:00:44;;;;;;;26.55;10.50;;;;;;;;;;6289839;28;20107;-82
2022/01/13 11:03:46;;;;;;;25.63;9.82;;;;;;;;;;6260071;28;20056;-81
2022/01/13 11:06:48;;;;;;;28.17;10.52;;;;;;;;;;6282694;28;20071;-81
2022/01/13 11:09:54;;;;;;;24.02;9.25;;;;;;;;;;6266092;28;20501;-83
2022/01/13 11:12:57;;;;;;;25.75;9.80;;;;;;;;;;6267360;28;20126;-84
2022/01/13 11:15:58;;;;;;;25.48;10.73;;;;;;;;;;6272980;28;20045;-80
2022/01/13 11:19:00;;;;;;;27.35;10.32;;;;;;;;;;6259447;28;20052;-82
2022/01/13 11:22:03;;;;;;;27.27;9.40;;;;;;;;;;6266234;28;20094;-81
2022/01/13 11:25:11;;;;;;;30.02;11.32;;;;;;;;;;6281316;28;20179;-82
2022/01/13 11:28:13;;;;;;;28.85;10.25;;;;;;;;;;6268300;28;20103;-82
2022/01/13 11:31:15;;;;;;;28.33;10.67;;;;;;;;;;6281343;28;20047;-80
2022/01/13 11:34:18;;;;;;;27.60;10.85;;;;;;;;;;6264225;28;20040;-80
2022/01/13 11:37:19;;;;;;;29.35;10.05;;;;;;;;;;6266523;28;20052;-80
2022/01/13 11:40:42;;;;;;;25.23;10.07;;;;;;;;;;6263813;28;20137;-79
2022/01/13 11:43:44;;;;;;;26.87;10.10;;;;;;;;;;6265789;28;20136;-80
2022/01/13 11:46:47;;;;;;;28.55;10.70;;;;;;;;;;6265355;28;20440;-82
2022/01/13 11:49:59;;;;;;;27.30;10.63;;;;;;;;;;6265525;28;20044;-82
2022/01/13 11:53:17;;;;;;;27.58;10.63;;;;;;;;;;6266841;28;20119;-79
2022/01/13 11:56:19;;;;;;;28.60;9.55;;;;;;;;;;6264485;28;20041;-78
2022/01/13 11:59:20;;;;;;;26.77;9.85;;;;;;;;;;6266329;28;20520;-79
2022/01/13 12:02:26;;;;;;;22.52;8.73;;;;;;;;;;6263496;28;20101;-80
2022/01/13 12:05:42;;;;;;;24.20;9.73;;;;;;;;;;6286212;28;20040;-79
2022/01/13 12:08:56;;;;;;;23.23;9.55;;;;;;;;;;6271686;28;20517;-80
2022/01/13 12:11:59;;;;;;;22.42;9.10;;;;;;;;;;6271035;28;20502;-80
2022/01/13 12:15:43;;;;;;;24.13;10.32;;;;;;;;;;6284965;28;20037;-80
2022/01/13 12:19:27;;;;;;;21.90;9.00;;;;;;;;;;6251567;28;20037;-81
2022/01/13 12:22:27;;;;;;;20.73;9.05;;;;;;;;;;6269714;28;20174;-79
2022/01/13 12:25:32;;;;;;;21.05;9.02;;;;;;;;;;6268978;28;20124;-80
2022/01/13 12:28:33;;;;;;;20.48;9.05;;;;;;;;;;6285097;28;20083;-80
2022/01/13 12:31:46;;;;;;;20.50;9.13;;;;;;;;;;6268724;28;20041;-79
2022/01/13 12:34:50;;;;;;;18.48;8.45;;;;;;;;;;6270270;28;20063;-81
2022/01/13 12:38:03;;;;;;;19.08;8.68;;;;;;;;;;6268885;28;20041;-80
2022/01/13 12:41:16;;;;;;;20.77;8.68;;;;;;;;;;6268600;28;20516;-80
2022/01/13 12:45:27;;;;;;;19.63;8.60;;;;;;;;;;6270495;28;20041;-80
2022/01/13 12:47:42;;;;;;;20.75;8.93;;;;;;;;;;6269522;28;20037;-81
2022/01/13 12:50:46;;;;;;;18.95;8.40;;;;;;;;;;6269509;28;20231;-81
2022/01/13 12:53:49;;;;;;;19.20;8.27;;;;;;;;;;6270453;28;20111;-81
2022/01/13 12:56:50;;;;;;;20.13;8.80;;;;;;;;;;6276149;28;20155;-82
2022/01/13 12:59:56;;;;;;;16.25;7.45;;;;;;;;;;6269100;28;20124;-81
2022/01/13 13:03:06;;;;;;;14.73;6.90;;;;;;;;;;6265126;28;20080;-81
2022/01/13 13:06:13;;;;;;;14.10;6.95;;;;;;;;;;6265309;28;20133;-79
2022/01/13 13:09:20;;;;;;;15.10;7.82;;;;;;;;;;6266517;28;20175;-80
2022/01/13 13:12:26;;;;;;;15.95;7.82;;;;;;;;;;6263312;28;20053;-80
2022/01/13 13:18:31;;;;;;;14.23;7.13;;;;;;;;;;6266358;28;20111;-80
2022/01/13 13:21:33;;;;;;;15.57;6.90;;;;;;;;;;6275482;28;20049;-80
2022/01/13 13:24:41;;;;;;;16.58;7.88;;;;;;;;;;6267676;28;20122;-80
2022/01/13 13:27:43;;;;;;;15.77;7.85;;;;;;;;;;6263177;28;20072;-80
2022/01/13 13:30:50;;;;;;;14.38;6.95;;;;;;;;;;6276825;28;20130;-79
2022/01/13 13:34:14;;;;;;;17.52;7.28;;;;;;;;;;6263260;28;20053;-80
2022/01/13 13:37:16;;;;;;;14.55;7.90;;;;;;;;;;6267326;28;20044;-81
2022/01/13 13:40:23;;;;;;;17.63;7.50;;;;;;;;;;6266734;28;20044;-81
2022/01/13 13:43:32;;;;;;;15.68;6.80;;;;;;;;;;6268994;28;20445;-80
2022/01/13 13:46:34;;;;;;;15.13;7.57;;;;;;;;;;6257058;28;20045;-79
2022/01/13 13:49:38;;;;;;;14.93;7.10;;;;;;;;;;6243344;28;20204;-81
2022/01/13 13:52:39;;;;;;;14.05;7.50;;;;;;;;;;6243200;28;20047;-80
2022/01/13 13:56:02;;;;;;;17.10;8.23;;;;;;;;;;6247873;28;20140;-80
2022/01/13 13:59:05;;;;;;;15.25;7.30;;;;;;;;;;6268900;28;20047;-80
2022/01/13 14:02:20;;;;;;;15.93;7.30;;;;;;;;;;6260718;28;20049;-79
2022/01/13 14:05:26;;;;;;;17.50;8.13;;;;;;;;;;6250567;28;20110;-81
2022/01/13 14:08:29;;;;;;;18.95;8.27;;;;;;;;;;6250518;28;20051;-82
2022/01/13 14:11:45;;;;;;;15.43;6.90;;;;;;;;;;6250468;28;20756;-81
2022/01/13 14:14:47;;;;;;;19.15;8.23;;;;;;;;;;6267550;28;20068;-80
2022/01/13 14:17:51;;;;;;;17.15;8.15;;;;;;;;;;6252797;28;20135;-79
2022/01/13 14:20:53;;;;;;;30.77;13.07;;;;;;;;;;6290980;28;20501;-80
2022/01/13 14:23:54;;;;;;;21.20;8.70;;;;;;;;;;6269687;28;20134;-80
2022/01/13 14:27:13;;;;;;;23.70;10.05;;;;;;;;;;6263669;28;20037;-79
2022/01/13 14:30:35;;;;;;;20.85;9.05;;;;;;;;;;6258623;28;20041;-81
2022/01/13 14:33:47;;;;;;;22.83;8.65;;;;;;;;;;6258786;28;20058;-81
2022/01/13 14:36:49;;;;;;;28.25;10.80;;;;;;;;;;6277311;28;20534;-80
2022/01/13 14:40:11;;;;;;;24.48;10.43;;;;;;;;;;6260668;28;20144;-80
2022/01/13 14:43:21;;;;;;;25.73;10.73;;;;;;;;;;6276908;28;20110;-80
2022/01/13 14:46:46;;;;;;;23.88;9.35;;;;;;;;;;6259434;28;20045;-78
2022/01/13 14:49:50;;;;;;;25.85;9.70;;;;;;;;;;6273450;28;20057;-80
2022/01/13 14:52:52;;;;;;;21.77;9.13;;;;;;;;;;6273647;28;20118;-80
2022/01/13 14:55:55;;;;;;;25.30;8.65;;;;;;;;;;6256457;28;20074;-82
2022/01/13 14:58:57;;;;;;;22.45;8.45;;;;;;;;;;6276160;28;20041;-83
2022/01/13 15:01:59;;;;;;;28.88;9.27;;;;;;;;;;6264992;28;20108;-81
2022/01/13 15:05:01;;;;;;;20.08;8.82;;;;;;;;;;6271154;28;20040;-83
2022/01/13 15:08:04;;;;;;;22.42;9.10;;;;;;;;;;6279387;28;20076;-83
2022/01/13 15:11:06;;;;;;;28.63;9.57;;;;;;;;;;6263011;28;20124;-86
2022/01/13 15:14:08;;;;;;;27.88;10.73;;;;;;;;;;6261450;28;20417;-82
2022/01/13 15:17:10;;;;;;;30.60;10.85;;;;;;;;;;6262352;28;20128;-83
2022/01/13 15:20:12;;;;;;;26.83;10.55;;;;;;;;;;6244801;28;20340;-82
2022/01/13 15:23:13;;;;;;;24.63;9.98;;;;;;;;;;6261708;28;20124;-82
2022/01/13 15:26:15;;;;;;;28.77;10.65;;;;;;;;;;6258348;28;20104;-83
2022/01/13 15:29:18;;;;;;;26.85;10.38;;;;;;;;;;6243831;28;20110;-80
2022/01/13 15:32:19;;;;;;;28.80;9.85;;;;;;;;;;6259832;28;20152;-81
2022/01/13 15:35:21;;;;;;;24.88;9.40;;;;;;;;;;6261967;28;20136;-81
2022/01/13 15:38:26;;;;;;;25.42;10.02;;;;;;;;;;6276916;28;20130;-81
2022/01/13 15:41:29;;;;;;;26.02;8.57;;;;;;;;;;6258352;28;20124;-81
2022/01/13 15:44:31;;;;;;;28.20;10.20;;;;;;;;;;6262053;28;20051;-81
2022/01/13 15:47:34;;;;;;;32.87;10.23;;;;;;;;;;6261316;28;20049;-83
2022/01/13 15:50:36;;;;;;;30.00;9.82;;;;;;;;;;6260050;28;20045;-81
2022/01/13 15:53:38;;;;;;;32.65;10.98;;;;;;;;;;6260852;28;20051;-83
2022/01/13 15:56:39;;;;;;;31.73;10.27;;;;;;;;;;6276466;28;20056;-82
2022/01/13 15:59:42;;;;;;;28.25;10.63;;;;;;;;;;6276672;28;20368;-81
2022/01/13 16:02:45;;;;;;;30.65;11.88;;;;;;;;;;6240238;28;20120;-82
2022/01/13 16:05:47;;;;;;;39.60;12.55;;;;;;;;;;6250313;28;20434;-82
2022/01/13 16:08:51;;;;;;;31.65;11.32;;;;;;;;;;6235993;28;20045;-83
2022/01/13 16:11:52;;;;;;;32.22;11.95;;;;;;;;;;6254218;28;20604;-82
2022/01/13 16:14:57;;;;;;;35.58;10.98;;;;;;;;;;6261234;28;20068;-83
2022/01/13 16:17:59;;;;;;;27.95;10.10;;;;;;;;;;6264060;28;20516;-82
2022/01/13 16:21:00;;;;;;;32.85;11.27;;;;;;;;;;6278451;28;20045;-81
2022/01/13 16:24:02;;;;;;;31.75;10.82;;;;;;;;;;6278909;28;20048;-80
2022/01/13 16:27:06;;;;;;;34.00;11.60;;;;;;;;;;6263402;28;20128;-84
2022/01/13 16:30:13;;;;;;;39.88;12.23;;;;;;;;;;6263515;28;20204;-78
2022/01/13 16:33:15;;;;;;;30.67;9.65;;;;;;;;;;6264318;28;20045;-80
2022/01/13 16:36:22;;;;;;;35.28;10.57;;;;;;;;;;6262526;28;20055;-83
2022/01/13 16:39:23;;;;;;;33.92;11.05;;;;;;;;;;6260520;28;20774;-82
2022/01/13 16:42:26;;;;;;;33.47;11.60;;;;;;;;;;6277532;28;20506;-82
2022/01/13 16:45:31;;;;;;;35.25;10.77;;;;;;;;;;6251117;28;20837;-82
2022/01/13 16:48:33;;;;;;;32.05;10.70;;;;;;;;;;6253264;28;20048;-84
2022/01/13 16:51:34;;;;;;;32.20;10.65;;;;;;;;;;6240014;28;20043;-81
2022/01/13 16:54:37;;;;;;;40.92;11.77;;;;;;;;;;6248054;28;20045;-83
2022/01/13 16:57:39;;;;;;;39.17;11.18;;;;;;;;;;6265796;28;20155;-83
2022/01/13 17:00:41;;;;;;;38.05;10.80;;;;;;;;;;6270437;28;20458;-83
2022/01/13 17:03:43;;;;;;;37.95;11.32;;;;;;;;;;6267422;28;20053;-81
2022/01/13 17:06:45;;;;;;;37.53;11.95;;;;;;;;;;6265969;28;20057;-80
2022/01/13 17:09:46;;;;;;;35.15;11.23;;;;;;;;;;6267162;28;20178;-80
2022/01/13 17:12:48;;;;;;;36.67;11.07;;;;;;;;;;6274649;28;20102;-79
2022/01/13 17:15:52;;;;;;;37.22;10.15;;;;;;;;;;6278675;28;20126;-80
2022/01/13 17:18:53;;;;;;;39.42;14.57;;;;;;;;;;6259883;28;20174;-80
2022/01/13 17:21:55;;;;;;;32.65;11.30;;;;;;;;;;6264223;28;20447;-80
2022/01/13 17:24:57;;;;;;;34.20;10.32;;;;;;;;;;6281470;28;20041;-81
2022/01/13 17:27:58;;;;;;;33.10;10.63;;;;;;;;;;6264013;28;20048;-81
2022/01/13 17:31:00;;;;;;;30.02;10.13;;;;;;;;;;6265331;28;20124;-80
2022/01/13 17:34:04;;;;;;;27.38;10.20;;;;;;;;;;6281500;28;20091;-81
2022/01/13 17:37:05;;;;;;;24.30;8.55;;;;;;;;;;6266380;28;20671;-79
2022/01/13 17:40:08;;;;;;;24.92;9.00;;;;;;;;;;6265755;28;20199;-79
2022/01/13 17:43:10;;;;;;;28.33;9.90;;;;;;;;;;6267879;28;20552;-83
2022/01/13 17:46:13;;;;;;;30.67;9.38;;;;;;;;;;6249757;28;20068;-83
2022/01/13 17:49:15;;;;;;;33.15;10.30;;;;;;;;;;6283298;28;20041;-81
2022/01/13 17:52:17;;;;;;;32.03;10.02;;;;;;;;;;6266866;28;20124;-80
2022/01/13 17:55:24;;;;;;;31.58;10.35;;;;;;;;;;6266902;28;20040;-83
2022/01/13 17:58:26;;;;;;;29.80;10.38;;;;;;;;;;6243133;28;20064;-81
2022/01/13 18:01:28;;;;;;;31.20;10.43;;;;;;;;;;6247853;28;20037;-81
2022/01/13 18:04:30;;;;;;;27.20;10.35;;;;;;;;;;6273563;28;20051;-81
2022/01/13 18:07:31;;;;;;;32.72;11.27;;;;;;;;;;6266258;28;20056;-84
2022/01/13 18:10:33;;;;;;;31.83;10.77;;;;;;;;;;6266755;28;20072;-81
2022/01/13 18:13:37;;;;;;;35.22;11.68;;;;;;;;;;6269234;28;20573;-81
2022/01/13 18:16:38;;;;;;;42.47;14.70;;;;;;;;;;6256363;28;20052;-83
2022/01/13 18:19:41;;;;;;;43.17;12.38;;;;;;;;;;6265721;28;20037;-82
2022/01/13 18:22:44;;;;;;;47.22;11.75;;;;;;;;;;6266693;28;20049;-81
2022/01/13 18:25:46;;;;;;;26.70;9.75;;;;;;;;;;6265243;28;20177;-82
2022/01/13 18:28:50;;;;;;;31.05;9.38;;;;;;;;;;6272483;28;20099;-82
2022/01/13 18:31:56;;;;;;;46.97;10.48;;;;;;;;;;6275245;28;20055;-82
2022/01/13 18:34:58;;;;;;;43.53;9.80;;;;;;;;;;6265439;28;20112;-82
2022/01/13 18:38:00;;;;;;;51.05;10.35;;;;;;;;;;6264744;28;20508;-82
2022/01/13 18:41:02;;;;;;;38.55;12.57;;;;;;;;;;6263854;28;20122;-84